PORT of YALTA

Riik: Ukraine Riik: Ukraine (UA)
Latitude / Longitude: 44.492455° / 34.166985° Näita kaardil Näita kaardil
Kohalik aeg:  UTC +3
UN/LOCODE: UAYAL
Vessels currently in Port: 8

Recent Arrivals and Departures


Vessel's Name
Saabumine (UTC)
Saabumine (LT)
Departure (UTC)
Departure (LT)
Vessel Type: Jahid & teised  O.GLAZUNOV 2014-09-19 07:17:00 2014-09-19 10:17:00 2014-09-19 07:31:00 2014-09-19 10:31:00
Vessel Type: Jahid & teised  SAMANTA SMITH 2014-09-19 07:00:00 2014-09-19 10:00:00
Vessel Type: Jahid & teised  SAMANTA SMITH 2014-09-15 16:59:00 2014-09-15 19:59:00 2014-09-19 06:11:00 2014-09-19 09:11:00
Vessel Type: Jahid & teised  O.GLAZUNOV 2014-09-19 05:40:00 2014-09-19 08:40:00 2014-09-19 06:03:00 2014-09-19 09:03:00
Vessel Type: Passenger Vessels  OCEAN MAJESTY 2014-09-17 05:40:00 2014-09-17 08:40:00 2014-09-17 14:32:00 2014-09-17 17:32:00
Vessel Type: Tug, Pilot, etc  GANZ NPK-14 2014-09-17 05:55:00 2014-09-17 08:55:00
Vessel Type: Passenger Vessels  EOL 2014-09-16 16:08:00 2014-09-16 19:08:00 2014-09-16 16:25:00 2014-09-16 19:25:00
Vessel Type: Passenger Vessels  EOL 2014-09-16 14:59:00 2014-09-16 17:59:00 2014-09-16 15:25:00 2014-09-16 18:25:00
Vessel Type: Passenger Vessels  EOL 2014-09-16 13:52:00 2014-09-16 16:52:00 2014-09-16 14:14:00 2014-09-16 17:14:00
Vessel Type: Passenger Vessels  PSOU 2014-09-16 11:07:00 2014-09-16 14:07:00 2014-09-16 13:24:00 2014-09-16 16:24:00

Oodatavad saabumised


Vessel's Name
Scheduled Arrival (UTC)
Ajastatud saabumisaeg (KA)
Loodetav saabumisaeg (UTC)
Loodetav saabumisaeg (KA)
Salvestusi ei leitud

Ilmainfo tuulest


    
Aeg (UTC)
Kiirus
Suund
Temperatuur
2014-09-19 18:00:00 18 knots 32° 19°C
2014-09-19 21:00:00 17 knots 33° 18°C
2014-09-20 00:00:00 15 knots 11° 18°C
2014-09-20 03:00:00 16 knots 17° 18°C
2014-09-20 06:00:00 17 knots 20° 18°C
2014-09-20 09:00:00 13 knots 34° 18°C
2014-09-20 12:00:00 7 knots 95° 19°C
2014-09-20 15:00:00 4 knots 70° 19°C
2014-09-20 18:00:00 10 knots 43° 18°C
2014-09-20 21:00:00 11 knots 354° 17°C
2014-09-21 00:00:00 11 knots 350° 17°C
2014-09-21 03:00:00 13 knots 354° 17°C
2014-09-21 06:00:00 12 knots 56° 17°C
2014-09-21 09:00:00 7 knots 72° 17°C
2014-09-21 12:00:00 4 knots 134° 18°C
2014-09-21 15:00:00 3 knots 175° 18°C
2014-09-21 18:00:00 5 knots 97° 18°C